createdAt,value
2022-09-21T00:01:39.004Z,6.48
2022-09-21T00:04:07.186Z,6.49
2022-09-21T00:06:36.171Z,6.49
2022-09-21T00:09:05.363Z,6.35
2022-09-21T00:11:34.613Z,6.47
2022-09-21T00:14:07.314Z,6.40
2022-09-21T00:16:36.085Z,6.40
2022-09-21T00:19:04.784Z,6.36
2022-09-21T00:21:33.174Z,6.30
2022-09-21T00:24:03.749Z,6.26
2022-09-21T00:26:34.369Z,5.88
2022-09-21T00:29:04.803Z,6.18
2022-09-21T00:31:33.398Z,6.12
2022-09-21T00:34:03.649Z,6.21
2022-09-21T00:36:31.921Z,6.23
2022-09-21T00:39:02.153Z,6.12
2022-09-21T00:41:31.556Z,6.21
2022-09-21T00:44:24.919Z,6.24
2022-09-21T00:46:54.473Z,6.26
2022-09-21T00:49:23.059Z,6.28
2022-09-21T00:51:53.284Z,6.30
2022-09-21T00:54:26.163Z,6.30
2022-09-21T00:56:55.606Z,6.30
2022-09-21T00:59:29.945Z,6.20
2022-09-21T01:01:59.706Z,5.81
2022-09-21T01:04:28.784Z,6.32
2022-09-21T01:06:57.567Z,6.32
2022-09-21T01:09:25.606Z,6.35
2022-09-21T01:12:08.929Z,6.36
2022-09-21T01:14:54.733Z,6.37
2022-09-21T01:17:31.890Z,6.38
2022-09-21T01:20:23.123Z,6.37
2022-09-21T01:23:04.293Z,6.36
2022-09-21T01:25:39.292Z,6.35
2022-09-21T01:28:20.949Z,6.29
2022-09-21T01:30:51.013Z,6.20
2022-09-21T01:33:24.003Z,6.28
2022-09-21T01:35:57.675Z,6.25
2022-09-21T01:38:28.348Z,6.14
2022-09-21T01:41:00.308Z,6.23
2022-09-21T01:43:33.232Z,6.17
2022-09-21T01:46:05.362Z,6.11
2022-09-21T01:48:35.956Z,6.15
2022-09-21T01:51:06.427Z,6.11
2022-09-21T01:53:37.621Z,5.90
2022-09-21T01:56:11.152Z,6.06
2022-09-21T01:58:42.750Z,6.01
2022-09-21T02:01:15.542Z,5.52
2022-09-21T02:03:46.410Z,6.05
2022-09-21T02:06:15.010Z,6.08
2022-09-21T02:08:43.119Z,6.06
2022-09-21T02:11:12.108Z,6.00
2022-09-21T02:13:41.620Z,6.16
2022-09-21T02:16:29.655Z,6.18
2022-09-21T02:19:11.312Z,6.18
2022-09-21T02:21:48.011Z,6.12
2022-09-21T02:24:24.655Z,6.20
2022-09-21T02:27:00.533Z,6.21
2022-09-21T02:29:33.529Z,6.17
2022-09-21T02:32:06.378Z,6.18
2022-09-21T02:34:38.621Z,6.16
2022-09-21T02:37:10.733Z,6.15
2022-09-21T02:39:42.352Z,6.17
2022-09-21T02:42:13.105Z,6.16
2022-09-21T02:44:43.025Z,6.18
2022-09-21T02:47:15.879Z,6.16
2022-09-21T02:49:47.071Z,6.15
2022-09-21T02:52:17.392Z,6.14
2022-09-21T02:54:48.575Z,5.97
2022-09-21T02:57:18.614Z,5.68
2022-09-21T02:59:46.785Z,6.13
2022-09-21T03:02:16.621Z,6.08
2022-09-21T03:04:47.703Z,5.86
2022-09-21T03:07:16.122Z,6.02
2022-09-21T03:09:44.336Z,5.85
2022-09-21T03:12:12.444Z,6.03
2022-09-21T03:14:40.499Z,6.05
2022-09-21T03:17:09.025Z,6.05
2022-09-21T03:19:38.537Z,6.07
2022-09-21T03:22:06.489Z,6.08
2022-09-21T03:24:46.715Z,6.07
2022-09-21T03:27:14.823Z,6.05
2022-09-21T03:29:43.067Z,5.50
2022-09-21T03:32:11.481Z,5.94
2022-09-21T03:34:40.935Z,5.88
2022-09-21T03:37:10.049Z,5.88
2022-09-21T03:39:38.120Z,5.88
2022-09-21T03:42:06.340Z,5.77
2022-09-21T03:44:34.356Z,5.78
2022-09-21T03:47:02.323Z,5.31
2022-09-21T03:49:31.095Z,5.79
2022-09-21T03:52:01.057Z,5.79
2022-09-21T03:54:29.112Z,5.78
2022-09-21T03:56:57.058Z,5.69
2022-09-21T03:59:25.107Z,5.69
2022-09-21T04:01:53.100Z,5.54
2022-09-21T04:04:21.719Z,5.66
2022-09-21T04:06:49.789Z,5.23
2022-09-21T04:09:19.224Z,5.14
2022-09-21T04:11:48.275Z,5.53
2022-09-21T04:14:17.517Z,5.50
2022-09-21T04:16:45.593Z,5.23
2022-09-21T04:19:14.062Z,5.55
2022-09-21T04:21:42.123Z,5.57
2022-09-21T04:24:10.249Z,5.55
2022-09-21T04:26:41.171Z,5.58
2022-09-21T04:29:11.128Z,5.58
2022-09-21T04:31:39.330Z,5.55
2022-09-21T04:34:07.374Z,5.44
2022-09-21T04:36:36.800Z,5.49
2022-09-21T04:39:05.978Z,5.39
2022-09-21T04:41:34.729Z,5.46
2022-09-21T04:44:04.439Z,5.39
2022-09-21T04:46:32.774Z,5.36
2022-09-21T04:49:01.006Z,5.36
2022-09-21T04:51:29.034Z,5.35
2022-09-21T04:53:57.247Z,5.32
2022-09-21T04:56:26.179Z,5.33
2022-09-21T04:58:54.359Z,5.30
2022-09-21T05:01:23.839Z,5.29
2022-09-21T05:03:52.722Z,5.30
2022-09-21T05:06:21.168Z,5.32
2022-09-21T05:09:06.708Z,5.35
2022-09-21T05:11:34.830Z,5.36
2022-09-21T05:14:03.140Z,5.21
2022-09-21T05:16:32.553Z,5.33
2022-09-21T05:19:00.499Z,5.35
2022-09-21T05:21:28.534Z,5.34
2022-09-21T05:23:57.452Z,5.33
2022-09-21T05:26:25.622Z,5.24
2022-09-21T05:28:54.384Z,5.37
2022-09-21T05:31:36.279Z,5.42
2022-09-21T05:34:08.311Z,5.48
2022-09-21T05:36:44.756Z,5.50
2022-09-21T05:39:13.309Z,5.55
2022-09-21T05:41:41.951Z,5.64
2022-09-21T05:44:11.840Z,5.71
2022-09-21T05:46:54.065Z,5.73
2022-09-21T05:49:29.160Z,5.77
2022-09-21T05:52:01.090Z,5.85
2022-09-21T05:54:40.120Z,5.86
2022-09-21T05:57:13.229Z,5.82
2022-09-21T05:59:55.689Z,5.98
2022-09-21T06:02:37.061Z,6.01
2022-09-21T06:05:08.792Z,5.97
2022-09-21T06:07:36.886Z,6.15
2022-09-21T06:10:05.675Z,6.09
2022-09-21T06:12:34.881Z,6.28
2022-09-21T06:15:02.956Z,6.33
2022-09-21T06:17:33.869Z,6.39
2022-09-21T06:20:03.068Z,6.27
2022-09-21T06:22:31.192Z,6.57
2022-09-21T06:24:59.248Z,6.77
2022-09-21T06:27:28.978Z,6.91
2022-09-21T06:29:57.250Z,7.01
2022-09-21T06:32:25.292Z,6.67
2022-09-21T06:34:54.811Z,7.23
2022-09-21T06:37:23.070Z,7.59
2022-09-21T06:39:51.247Z,7.81
2022-09-21T06:42:19.447Z,8.01
2022-09-21T06:44:47.589Z,8.18
2022-09-21T06:47:15.712Z,8.33
2022-09-21T06:49:43.806Z,8.40
2022-09-21T06:52:13.334Z,8.64
2022-09-21T06:54:42.445Z,8.87
2022-09-21T06:57:10.558Z,8.95
2022-09-21T06:59:38.714Z,9.21
2022-09-21T07:02:07.208Z,9.44
2022-09-21T07:04:36.102Z,9.17
2022-09-21T07:07:05.920Z,9.80
2022-09-21T07:12:26.309Z,10.08
2022-09-21T07:14:54.329Z,10.29
2022-09-21T07:17:22.385Z,10.32
2022-09-21T07:19:50.601Z,10.24
2022-09-21T07:22:18.729Z,10.21
2022-09-21T07:24:48.119Z,10.15
2022-09-21T07:27:16.311Z,10.29
2022-09-21T07:29:44.426Z,10.38
2022-09-21T07:32:14.023Z,10.36
2022-09-21T07:34:42.117Z,10.25
2022-09-21T07:37:10.276Z,10.35
2022-09-21T07:39:39.007Z,10.35
2022-09-21T07:42:08.821Z,10.40
2022-09-21T07:44:36.987Z,10.40
2022-09-21T07:47:05.119Z,10.45
2022-09-21T07:49:33.179Z,10.51
2022-09-21T07:52:04.870Z,10.54
2022-09-21T07:54:34.520Z,10.68
2022-09-21T07:57:19.870Z,10.65
2022-09-21T07:59:49.366Z,10.60
2022-09-21T08:02:17.593Z,10.62
2022-09-21T08:04:46.334Z,10.80
2022-09-21T08:07:15.683Z,11.25
2022-09-21T08:09:49.643Z,11.68
2022-09-21T08:12:21.204Z,11.80
2022-09-21T08:15:01.745Z,12.04
2022-09-21T08:17:31.806Z,12.21
2022-09-21T08:19:59.834Z,12.44
2022-09-21T08:22:30.830Z,12.49
2022-09-21T08:24:58.875Z,12.93
2022-09-21T08:27:34.403Z,12.68
2022-09-21T08:30:04.083Z,12.91
2022-09-21T08:32:50.309Z,13.07
2022-09-21T08:35:19.419Z,12.72
2022-09-21T08:37:47.635Z,12.84
2022-09-21T08:40:16.820Z,12.92
2022-09-21T08:42:52.528Z,12.84
2022-09-21T08:45:22.751Z,12.24
2022-09-21T08:47:54.773Z,12.33
2022-09-21T08:50:33.952Z,12.43
2022-09-21T08:53:07.800Z,12.59
2022-09-21T08:55:35.800Z,12.55
2022-09-21T08:58:03.830Z,12.47
2022-09-21T09:00:35.936Z,12.23
2022-09-21T09:03:40.049Z,12.19
2022-09-21T09:06:13.162Z,12.07
2022-09-21T09:09:08.773Z,12.04
2022-09-21T09:11:48.323Z,11.97
2022-09-21T09:14:31.098Z,11.68
2022-09-21T09:17:12.899Z,11.62
2022-09-21T09:19:44.954Z,11.71
2022-09-21T09:22:16.670Z,11.75
2022-09-21T09:24:48.743Z,11.93
2022-09-21T09:27:21.169Z,11.47
2022-09-21T09:29:58.349Z,11.85
2022-09-21T09:32:39.745Z,11.68
2022-09-21T09:35:18.170Z,11.52
2022-09-21T09:37:47.096Z,11.40
2022-09-21T09:40:17.324Z,11.58
2022-09-21T09:42:59.252Z,11.58
2022-09-21T09:45:39.743Z,11.62
2022-09-21T09:48:17.637Z,11.53
2022-09-21T09:50:45.826Z,11.09
2022-09-21T09:53:16.418Z,11.71
2022-09-21T09:55:46.805Z,11.68
2022-09-21T09:58:19.692Z,11.74
2022-09-21T10:00:49.298Z,11.61
2022-09-21T10:03:21.869Z,11.81
2022-09-21T10:05:53.744Z,11.87
2022-09-21T10:08:42.248Z,11.58
2022-09-21T10:11:11.872Z,11.94
2022-09-21T10:13:41.120Z,11.74
2022-09-21T10:16:14.465Z,11.83
2022-09-21T10:18:47.396Z,11.86
2022-09-21T10:21:21.205Z,12.15
2022-09-21T10:23:50.990Z,12.25
2022-09-21T10:26:21.123Z,12.45
2022-09-21T10:29:00.399Z,12.39
2022-09-21T10:31:30.014Z,12.44
2022-09-21T10:34:13.661Z,12.56
2022-09-21T10:36:42.253Z,12.57
2022-09-21T10:39:20.125Z,12.61
2022-09-21T10:41:53.050Z,12.81
2022-09-21T10:44:23.788Z,12.63
2022-09-21T10:46:52.537Z,12.93
2022-09-21T10:49:27.171Z,12.66
2022-09-21T10:51:57.870Z,13.24
2022-09-21T10:54:29.563Z,13.44
2022-09-21T10:57:00.790Z,13.41
2022-09-21T10:59:30.517Z,13.35
2022-09-21T11:02:00.397Z,13.30
2022-09-21T11:04:44.671Z,13.21
2022-09-21T11:07:20.158Z,13.19
2022-09-21T11:09:51.899Z,13.05
2022-09-21T11:12:40.904Z,13.04
2022-09-21T11:15:19.479Z,12.97
2022-09-21T11:17:50.502Z,12.75
2022-09-21T11:20:28.102Z,12.67
2022-09-21T11:23:05.424Z,12.66
2022-09-21T11:25:42.541Z,12.54
2022-09-21T11:28:16.288Z,12.30
2022-09-21T11:30:55.659Z,12.07
2022-09-21T11:33:35.225Z,12.11
2022-09-21T11:36:10.609Z,12.23
2022-09-21T11:38:46.149Z,12.27
2022-09-21T11:41:22.980Z,12.16
2022-09-21T11:44:09.140Z,12.06
2022-09-21T11:46:44.233Z,11.66
2022-09-21T11:49:33.548Z,12.16
2022-09-21T11:52:20.828Z,12.18
2022-09-21T11:55:13.744Z,12.06
2022-09-21T11:57:45.824Z,12.22
2022-09-21T12:00:17.417Z,12.35
2022-09-21T12:03:08.879Z,12.44
2022-09-21T12:05:40.507Z,12.32
2022-09-21T12:08:26.866Z,12.45
2022-09-21T12:11:01.211Z,12.57
2022-09-21T12:13:34.101Z,12.76
2022-09-21T12:16:05.343Z,13.00
2022-09-21T12:18:36.854Z,13.12
2022-09-21T12:21:12.528Z,13.15
2022-09-21T12:23:44.500Z,13.41
2022-09-21T12:26:15.454Z,13.09
2022-09-21T12:28:47.745Z,13.07
2022-09-21T12:31:20.994Z,12.87
2022-09-21T12:33:52.851Z,12.64
2022-09-21T12:36:23.437Z,13.00
2022-09-21T12:38:56.929Z,13.01
2022-09-21T12:41:33.237Z,13.18
2022-09-21T12:44:05.951Z,13.48
2022-09-21T12:46:39.273Z,13.73
2022-09-21T12:49:14.271Z,14.03
2022-09-21T12:51:44.416Z,14.08
2022-09-21T12:54:20.925Z,14.30
2022-09-21T12:56:52.904Z,14.00
2022-09-21T12:59:31.397Z,14.10
2022-09-21T13:02:12.515Z,13.87
2022-09-21T13:04:50.565Z,14.09
2022-09-21T13:07:35.262Z,14.09
2022-09-21T13:10:13.949Z,14.28
2022-09-21T13:12:44.921Z,13.55
2022-09-21T13:15:21.966Z,14.40
2022-09-21T13:18:00.085Z,14.34
2022-09-21T13:20:28.574Z,14.06
2022-09-21T13:23:00.822Z,14.35
2022-09-21T13:25:32.580Z,13.63
2022-09-21T13:28:19.735Z,14.13
2022-09-21T13:30:49.274Z,14.15
2022-09-21T13:33:40.041Z,14.33
2022-09-21T13:36:32.483Z,14.19
2022-09-21T13:39:18.852Z,14.05
2022-09-21T13:42:04.098Z,13.96
2022-09-21T13:44:43.745Z,13.58
2022-09-21T13:47:14.332Z,13.42
2022-09-21T13:49:50.895Z,13.58
2022-09-21T13:52:27.903Z,13.71
2022-09-21T13:54:59.299Z,13.44
2022-09-21T13:57:33.351Z,13.20
2022-09-21T14:00:23.045Z,13.81
2022-09-21T14:02:58.918Z,14.66
2022-09-21T14:05:31.772Z,15.54
2022-09-21T14:08:03.391Z,16.40
2022-09-21T14:10:33.595Z,16.80
2022-09-21T14:13:03.848Z,17.27
2022-09-21T14:15:40.334Z,17.37
2022-09-21T14:18:34.659Z,16.64
2022-09-21T14:21:17.663Z,16.90
2022-09-21T14:24:28.199Z,16.33
2022-09-21T14:27:03.647Z,16.21
2022-09-21T14:29:40.877Z,16.48
2022-09-21T14:32:19.270Z,16.82
2022-09-21T14:34:49.594Z,16.77
2022-09-21T14:37:27.491Z,15.95
2022-09-21T14:39:56.037Z,15.77
2022-09-21T14:42:29.200Z,15.90
2022-09-21T14:45:01.399Z,16.45
2022-09-21T14:47:51.839Z,16.11
2022-09-21T14:50:31.863Z,16.55
2022-09-21T14:53:41.205Z,16.67
2022-09-21T14:56:22.546Z,16.76
2022-09-21T14:58:59.393Z,16.98
2022-09-21T15:01:41.573Z,16.66
2022-09-21T15:04:24.236Z,17.42
2022-09-21T15:07:15.674Z,17.10
2022-09-21T15:10:33.272Z,17.00
2022-09-21T15:13:09.631Z,16.82
2022-09-21T15:15:40.659Z,16.76
2022-09-21T15:18:20.176Z,17.05
2022-09-21T15:21:01.312Z,16.87
2022-09-21T15:23:30.672Z,16.84
2022-09-21T15:26:02.818Z,16.10
2022-09-21T15:28:51.950Z,14.77
2022-09-21T15:31:24.951Z,14.12
2022-09-21T15:33:54.796Z,13.57
2022-09-21T15:36:25.244Z,13.03
2022-09-21T15:38:54.183Z,12.91
2022-09-21T15:41:41.133Z,12.90
2022-09-21T15:44:15.587Z,12.45
2022-09-21T15:46:45.452Z,12.42
2022-09-21T15:49:21.308Z,12.25
2022-09-21T15:51:53.257Z,12.10
2022-09-21T15:54:32.029Z,11.82
2022-09-21T15:57:04.667Z,11.69
2022-09-21T15:59:35.842Z,11.49
2022-09-21T16:02:13.916Z,11.73
2022-09-21T16:04:49.373Z,13.26
2022-09-21T16:07:27.222Z,13.15
2022-09-21T16:09:55.248Z,13.06
2022-09-21T16:12:47.408Z,12.71
2022-09-21T16:15:18.775Z,12.45
2022-09-21T16:18:01.460Z,12.13
2022-09-21T16:20:45.735Z,11.95
2022-09-21T16:23:16.311Z,11.67
2022-09-21T16:25:44.875Z,11.42
2022-09-21T16:28:31.998Z,10.81
2022-09-21T16:31:00.355Z,11.09
2022-09-21T16:33:41.200Z,10.96
2022-09-21T16:36:44.091Z,10.88
2022-09-21T16:39:15.647Z,10.73
2022-09-21T16:41:48.447Z,10.80
2022-09-21T16:44:22.852Z,10.69
2022-09-21T16:46:56.183Z,10.71
2022-09-21T16:49:30.466Z,10.68
2022-09-21T16:52:00.308Z,10.73
2022-09-21T16:54:28.791Z,10.76
2022-09-21T16:56:58.535Z,10.73
2022-09-21T16:59:27.390Z,10.67
2022-09-21T17:01:56.980Z,10.59
2022-09-21T17:04:27.767Z,10.55
2022-09-21T17:06:58.087Z,10.51
2022-09-21T17:09:33.487Z,10.52
2022-09-21T17:12:06.974Z,10.44
2022-09-21T17:14:37.107Z,10.48
2022-09-21T17:17:08.500Z,10.44
2022-09-21T17:19:36.926Z,10.33
2022-09-21T17:22:06.915Z,10.25
2022-09-21T17:24:50.151Z,10.23
2022-09-21T17:27:19.763Z,10.00
2022-09-21T17:29:49.410Z,9.85
2022-09-21T17:32:20.281Z,10.17
2022-09-21T17:34:50.213Z,10.02
2022-09-21T17:37:18.293Z,10.10
2022-09-21T17:39:48.616Z,10.05
2022-09-21T17:42:19.752Z,9.92
2022-09-21T17:45:12.897Z,9.90
2022-09-21T17:47:41.528Z,9.78
2022-09-21T17:50:20.676Z,9.90
2022-09-21T17:53:06.267Z,9.92
2022-09-21T17:55:36.336Z,9.96
2022-09-21T17:58:16.936Z,9.86
2022-09-21T18:00:52.940Z,9.96
2022-09-21T18:03:23.403Z,9.70
2022-09-21T18:05:57.351Z,9.91
2022-09-21T18:08:27.026Z,9.88
2022-09-21T18:11:08.117Z,9.87
2022-09-21T18:13:44.427Z,9.93
2022-09-21T18:16:27.118Z,9.95
2022-09-21T18:19:05.474Z,9.81
2022-09-21T18:21:36.826Z,9.89
2022-09-21T18:24:14.817Z,9.82
2022-09-21T18:26:44.920Z,9.68
2022-09-21T18:29:38.870Z,9.50
2022-09-21T18:32:23.096Z,9.60
2022-09-21T18:35:10.549Z,9.55
2022-09-21T18:37:43.987Z,9.38
2022-09-21T18:40:21.942Z,9.42
2022-09-21T18:42:55.893Z,9.36
2022-09-21T18:45:27.192Z,9.26
2022-09-21T18:48:06.963Z,9.27
2022-09-21T18:50:38.492Z,8.59
2022-09-21T18:53:13.260Z,8.98
2022-09-21T18:55:42.305Z,8.88
2022-09-21T18:58:17.101Z,8.82
2022-09-21T19:00:45.969Z,8.82
2022-09-21T19:03:18.341Z,8.84
2022-09-21T19:05:55.509Z,8.87
2022-09-21T19:08:29.634Z,8.74
2022-09-21T19:11:03.801Z,8.97
2022-09-21T19:13:41.564Z,9.02
2022-09-21T19:16:16.508Z,9.05
2022-09-21T19:18:50.024Z,9.06
2022-09-21T19:21:24.026Z,9.06
2022-09-21T19:24:06.255Z,9.00
2022-09-21T19:26:40.181Z,8.43
2022-09-21T19:29:25.430Z,8.81
2022-09-21T19:31:53.667Z,8.86
2022-09-21T19:34:22.012Z,8.82
2022-09-21T19:36:51.261Z,8.66
2022-09-21T19:39:19.834Z,8.53
2022-09-21T19:41:56.050Z,8.44
2022-09-21T19:44:38.841Z,8.38
2022-09-21T19:47:12.835Z,8.39
2022-09-21T19:49:48.060Z,8.30
2022-09-21T19:52:18.178Z,8.20
2022-09-21T19:55:04.375Z,7.74
2022-09-21T19:57:50.079Z,7.92
2022-09-21T20:00:21.186Z,7.93
2022-09-21T20:02:57.749Z,7.85
2022-09-21T20:05:41.522Z,7.70
2022-09-21T20:08:14.538Z,7.70
2022-09-21T20:11:06.745Z,7.62
2022-09-21T20:13:45.839Z,7.48
2022-09-21T20:16:27.195Z,7.43
2022-09-21T20:19:00.069Z,6.99
2022-09-21T20:21:35.154Z,7.53
2022-09-21T20:24:04.715Z,7.26
2022-09-21T20:26:33.005Z,7.46
2022-09-21T20:29:01.557Z,7.40
2022-09-21T20:31:30.970Z,7.42
2022-09-21T20:33:58.963Z,7.28
2022-09-21T20:36:26.916Z,7.30
2022-09-21T20:38:56.811Z,7.15
2022-09-21T20:41:25.091Z,7.10
2022-09-21T20:43:53.121Z,7.09
2022-09-21T20:46:21.337Z,7.05
2022-09-21T20:49:00.267Z,7.03
2022-09-21T20:51:28.489Z,7.01
2022-09-21T20:53:56.534Z,6.89
2022-09-21T20:56:24.579Z,6.84
2022-09-21T20:58:52.610Z,6.72
2022-09-21T21:01:20.628Z,6.80
2022-09-21T21:03:51.013Z,6.69
2022-09-21T21:06:19.814Z,6.73
2022-09-21T21:08:48.175Z,6.47
2022-09-21T21:11:16.216Z,6.57
2022-09-21T21:13:44.349Z,6.52
2022-09-21T21:16:12.704Z,6.48
2022-09-21T21:18:41.408Z,6.42
2022-09-21T21:21:10.832Z,6.49
2022-09-21T21:23:52.835Z,6.47
2022-09-21T21:26:23.950Z,6.47
2022-09-21T21:29:01.629Z,6.49
2022-09-21T21:31:29.693Z,6.43
2022-09-21T21:33:57.772Z,6.33
2022-09-21T21:36:27.215Z,6.35
2022-09-21T21:38:55.257Z,6.23
2022-09-21T21:41:23.286Z,6.16
2022-09-21T21:43:51.291Z,5.70
2022-09-21T21:46:19.617Z,6.02
2022-09-21T21:48:47.856Z,6.05
2022-09-21T21:51:16.176Z,6.25
2022-09-21T21:53:46.089Z,6.37
2022-09-21T21:56:16.169Z,6.42
2022-09-21T21:58:44.793Z,6.41
2022-09-21T22:01:13.933Z,6.22
2022-09-21T22:03:42.599Z,6.35
2022-09-21T22:06:11.755Z,6.27
2022-09-21T22:08:41.080Z,6.31
2022-09-21T22:11:10.700Z,6.27
2022-09-21T22:13:40.161Z,6.21
2022-09-21T22:16:10.037Z,6.20
2022-09-21T22:18:38.094Z,6.16
2022-09-21T22:21:09.086Z,6.12
2022-09-21T22:23:37.091Z,6.03
2022-09-21T22:26:07.346Z,6.17
2022-09-21T22:28:37.634Z,6.23
2022-09-21T22:31:09.762Z,6.30
2022-09-21T22:33:38.707Z,6.29
2022-09-21T22:36:08.754Z,6.46
2022-09-21T22:38:42.581Z,6.46
2022-09-21T22:41:12.458Z,6.47
2022-09-21T22:43:42.199Z,6.66
2022-09-21T22:46:10.680Z,6.70
2022-09-21T22:48:38.986Z,6.64
2022-09-21T22:51:07.066Z,6.41
2022-09-21T22:53:35.116Z,6.55
2022-09-21T22:56:04.956Z,6.70
2022-09-21T22:58:33.879Z,6.77
2022-09-21T23:01:08.354Z,6.92
2022-09-21T23:03:37.127Z,6.38
2022-09-21T23:06:05.449Z,6.39
2022-09-21T23:08:33.952Z,6.85
2022-09-21T23:11:09.779Z,6.97
2022-09-21T23:13:37.885Z,6.99
2022-09-21T23:16:09.379Z,7.01
2022-09-21T23:18:38.099Z,7.04
2022-09-21T23:21:08.590Z,7.07
2022-09-21T23:23:36.644Z,7.06
2022-09-21T23:26:06.793Z,7.00
2022-09-21T23:28:35.567Z,7.00
2022-09-21T23:31:06.233Z,6.95
2022-09-21T23:33:37.112Z,7.00
2022-09-21T23:36:06.523Z,6.99
2022-09-21T23:38:34.870Z,6.61
2022-09-21T23:41:04.941Z,7.03
2022-09-21T23:43:33.199Z,6.94
2022-09-21T23:46:01.782Z,6.50
2022-09-21T23:48:30.150Z,7.04
2022-09-21T23:50:59.985Z,6.61
2022-09-21T23:53:29.077Z,7.10
2022-09-21T23:55:57.714Z,7.04
2022-09-21T23:58:26.498Z,7.13
